Time;durP1;ratioP1;P1;durP2;ratioP2;P2;SDS_P1;SDS_P2;PMS_P1;PMS_P2;Temp;Humidity;BMP_temperature;BMP_pressure;BME280_temperature;BME280_humidity;BME280_pressure;Samples;Min_cycle;Max_cycle;Signal;HPM_P1;HPM_P2
2021/10/31 00:02:25;;;;;;;;;7.50;7.00;;;;;13.87;94.42;99946.84;5075805;28;45514;-82
2021/10/31 00:08:12;;;;;;;;;10.00;10.00;;;;;13.82;94.25;99938.53;5075560;28;45679;-80
2021/10/31 00:10:38;;;;;;;;;8.50;8.25;;;;;13.82;94.44;99941.19;5075356;28;45931;-79
2021/10/31 00:13:04;;;;;;;;;10.00;9.25;;;;;13.75;94.13;99935.69;5057278;28;45588;-81
2021/10/31 00:15:30;;;;;;;;;8.75;8.25;;;;;13.77;94.01;99933.72;5075720;28;45456;-81
2021/10/31 00:17:55;;;;;;;;;9.75;9.25;;;;;13.80;94.23;99943.13;5075059;28;46346;-79
2021/10/31 00:20:20;;;;;;;;;8.00;7.25;;;;;13.62;93.87;99913.28;5074938;28;46280;-81
2021/10/31 00:22:47;;;;;;;;;8.00;7.50;;;;;13.78;94.18;99939.81;5075200;28;45499;-83
2021/10/31 00:25:14;;;;;;;;;6.75;6.00;;;;;13.55;94.04;99909.59;5074347;28;45593;-82
2021/10/31 00:27:40;;;;;;;;;7.00;7.00;;;;;13.77;94.26;99946.06;5075095;28;45530;-82
2021/10/31 00:30:06;;;;;;;;;9.50;8.50;;;;;13.64;94.09;99920.06;5056488;28;47098;-81
2021/10/31 00:32:31;;;;;;;;;6.00;5.75;;;;;13.76;94.44;99939.97;5075149;28;45717;-81
2021/10/31 00:38:23;;;;;;;;;6.75;6.00;;;;;13.70;94.38;99937.09;5072297;28;45691;-79
2021/10/31 00:40:48;;;;;;;;;6.75;6.75;;;;;13.73;94.14;99942.88;5073556;28;45985;-77
2021/10/31 00:43:23;;;;;;;;;5.50;5.25;;;;;13.73;94.32;99953.41;5074907;28;45578;-79
2021/10/31 00:45:49;;;;;;;;;6.75;6.75;;;;;13.52;94.15;99910.69;5075291;28;45700;-77
2021/10/31 00:48:15;;;;;;;;;6.50;6.50;;;;;13.68;94.30;99944.31;5074661;28;46124;-78
2021/10/31 00:50:42;;;;;;;;;7.50;7.00;;;;;13.71;94.15;99965.09;5074469;28;46003;-79
2021/10/31 00:53:08;;;;;;;;;7.50;7.00;;;;;13.69;94.33;99959.97;5074470;28;45722;-81
2021/10/31 00:55:33;;;;;;;;;6.00;5.00;;;;;13.65;94.20;99945.44;5074913;28;45484;-78
2021/10/31 00:57:59;;;;;;;;;5.75;5.00;;;;;13.68;94.26;99944.31;5074743;28;46510;-82
2021/10/31 01:00:26;;;;;;;;;10.25;9.00;;;;;13.66;93.87;99941.81;5074485;28;46041;-79
2021/10/31 01:02:51;;;;;;;;;7.50;7.00;;;;;13.53;94.20;99920.25;5056167;28;45671;-79
2021/10/31 01:08:58;;;;;;;;;6.00;6.00;;;;;13.63;94.03;99931.56;5074418;28;45506;-79
2021/10/31 01:12:19;;;;;;;;;6.00;6.00;;;;;13.59;94.38;99922.31;5074929;28;46065;-78
2021/10/31 01:15:22;;;;;;;;;9.00;7.00;;;;;13.35;94.37;99893.88;5056998;28;46053;-78
2021/10/31 01:21:14;;;;;;;;;6.50;6.00;;;;;13.58;94.06;99925.91;5074407;28;45958;-80
2021/10/31 01:24:13;;;;;;;;;6.75;6.75;;;;;13.54;94.48;99926.34;5074256;28;45502;-82
2021/10/31 01:27:17;;;;;;;;;7.50;7.00;;;;;13.56;94.38;99917.31;5074481;28;45647;-78
2021/10/31 01:29:51;;;;;;;;;7.50;7.00;;;;;13.45;94.18;99902.56;5073571;28;46007;-81
2021/10/31 01:32:38;;;;;;;;;6.00;5.50;;;;;13.55;94.42;99928.03;5073833;28;45486;-79
2021/10/31 01:38:45;;;;;;;;;6.00;5.00;;;;;13.50;94.08;99911.81;5077434;28;45753;-78
2021/10/31 01:41:16;;;;;;;;;7.50;6.75;;;;;13.43;94.47;99901.06;5077802;28;45510;-80
2021/10/31 01:43:49;;;;;;;;;3.75;3.75;;;;;13.45;94.44;99899.91;5077807;28;46437;-80
2021/10/31 01:46:22;;;;;;;;;6.00;5.00;;;;;13.36;93.94;99874.47;5077971;28;45687;-80
2021/10/31 01:49:01;;;;;;;;;4.25;4.00;;;;;13.33;94.02;99868.69;5059568;28;45798;-79
2021/10/31 01:51:46;;;;;;;;;6.50;6.00;;;;;13.49;93.95;99895.22;5078223;28;45782;-79
2021/10/31 01:54:20;;;;;;;;;5.00;5.00;;;;;13.42;93.94;99887.06;5078167;28;45835;-79
2021/10/31 01:56:50;;;;;;;;;5.00;5.00;;;;;13.49;94.22;99886.50;5078301;28;45660;-79
2021/10/31 01:59:29;;;;;;;;;6.00;6.00;;;;;13.39;93.82;99873.34;5078188;28;45476;-78
2021/10/31 02:01:58;;;;;;;;;6.75;6.00;;;;;13.48;93.92;99887.47;5056370;28;45651;-81
2021/10/31 02:04:26;;;;;;;;;7.25;7.00;;;;;13.47;94.46;99883.16;5078131;28;46662;-80
2021/10/31 02:06:53;;;;;;;;;5.00;5.00;;;;;13.38;94.25;99866.47;5064385;28;48212;-80
2021/10/31 02:09:22;;;;;;;;;5.00;4.75;;;;;13.38;94.23;99869.91;5081503;28;45557;-79
2021/10/31 02:11:48;;;;;;;;;6.00;6.00;;;;;13.30;94.24;99856.66;5065484;28;45531;-79
2021/10/31 02:14:15;;;;;;;;;5.75;5.00;;;;;13.42;94.20;99871.28;5083467;28;45681;-81
2021/10/31 02:16:43;;;;;;;;;5.50;5.50;;;;;13.42;94.28;99879.16;5078415;28;46827;-79
2021/10/31 02:19:16;;;;;;;;;10.00;6.75;;;;;13.42;94.47;99881.81;5077368;28;45732;-80
2021/10/31 02:21:42;;;;;;;;;7.00;6.00;;;;;13.41;94.40;99879.31;5077505;28;45686;-80
2021/10/31 02:24:08;;;;;;;;;6.00;6.00;;;;;13.26;94.09;99854.44;5058692;28;47756;-81
2021/10/31 02:26:38;;;;;;;;;7.75;6.50;;;;;13.26;94.01;99855.28;5058923;28;47324;-78
2021/10/31 02:29:07;;;;;;;;;9.75;8.75;;;;;13.40;93.97;99877.66;5077065;28;45707;-81
2021/10/31 02:31:34;;;;;;;;;9.50;7.00;;;;;13.39;94.08;99876.81;5077508;28;45858;-80
2021/10/31 02:33:59;;;;;;;;;10.25;9.50;;;;;13.40;94.02;99872.38;5077729;28;46569;-80
2021/10/31 02:36:25;;;;;;;;;10.50;9.00;;;;;13.38;94.15;99872.56;5077081;28;45969;-79
2021/10/31 02:38:50;;;;;;;;;8.00;7.75;;;;;13.32;94.48;99859.13;5076273;28;45617;-79
2021/10/31 02:41:16;;;;;;;;;10.25;9.25;;;;;13.25;94.42;99842.28;5076668;28;45526;-78
2021/10/31 02:43:41;;;;;;;;;10.25;9.25;;;;;13.34;94.09;99859.81;5076656;28;46239;-78
2021/10/31 02:46:07;;;;;;;;;8.25;7.00;;;;;13.31;94.24;99850.41;5076786;28;45676;-80
2021/10/31 02:48:36;;;;;;;;;7.25;7.25;;;;;13.32;94.28;99851.25;5075921;28;45730;-79
2021/10/31 02:54:23;;;;;;;;;11.00;10.00;;;;;13.28;94.43;99831.47;5076399;28;46052;-82
2021/10/31 02:57:18;;;;;;;;;7.25;7.25;;;;;13.25;94.58;99832.56;5076669;28;46009;-81
2021/10/31 02:59:50;;;;;;;;;8.25;7.75;;;;;13.17;94.02;99821.94;5076121;28;45644;-80
2021/10/31 03:02:16;;;;;;;;;7.75;6.00;;;;;13.16;94.19;99815.03;5076181;28;45556;-80
2021/10/31 03:04:43;;;;;;;;;8.50;7.00;;;;;13.12;93.96;99804.97;5076147;28;46659;-80
2021/10/31 03:07:10;;;;;;;;;8.25;8.00;;;;;13.15;94.37;99818.63;5076196;28;46036;-80
2021/10/31 03:09:36;;;;;;;;;9.00;7.75;;;;;13.09;94.39;99807.84;5076296;28;45725;-78
2021/10/31 03:12:19;;;;;;;;;;;;;;;;;;;;;
2021/10/31 03:14:46;;;;;;;;;7.00;7.00;;;;;13.11;94.31;99792.75;5074979;28;76676;-79
2021/10/31 03:17:12;;;;;;;;;9.50;9.25;;;;;13.15;94.07;99799.41;5076062;28;46121;-80
2021/10/31 03:19:40;;;;;;;;;10.25;9.00;;;;;12.97;94.22;99767.75;5076076;28;45545;-79
2021/10/31 03:22:07;;;;;;;;;8.25;7.75;;;;;13.11;94.14;99790.13;5076212;28;45573;-79
2021/10/31 03:24:34;;;;;;;;;10.00;9.75;;;;;13.10;94.56;99793.72;5057804;28;46174;-81
2021/10/31 03:26:59;;;;;;;;;9.75;9.00;;;;;13.00;94.41;99783.25;5076072;28;45988;-80
2021/10/31 03:29:25;;;;;;;;;9.00;9.00;;;;;13.06;94.51;99790.56;5075774;28;45604;-81
2021/10/31 03:31:54;;;;;;;;;11.50;9.75;;;;;13.01;94.37;99783.06;5076107;28;45692;-79
2021/10/31 03:34:20;;;;;;;;;9.25;7.50;;;;;13.03;94.44;99794.28;5076327;28;46891;-77
2021/10/31 03:36:46;;;;;;;;;7.75;7.25;;;;;12.95;94.22;99775.78;5075850;28;46117;-79
2021/10/31 03:39:11;;;;;;;;;6.50;6.50;;;;;13.00;94.18;99799.03;5075419;28;45698;-79
2021/10/31 03:41:37;;;;;;;;;11.50;10.00;;;;;12.98;94.18;99785.19;5076179;28;45578;-79
2021/10/31 03:44:03;;;;;;;;;9.25;8.50;;;;;12.86;94.56;99768.75;5076260;28;46203;-80
2021/10/31 03:46:32;;;;;;;;;10.00;10.00;;;;;12.73;94.62;99749.88;5075997;28;46073;-78
2021/10/31 03:48:58;;;;;;;;;10.00;10.00;;;;;12.92;94.38;99777.88;5075523;28;45603;-82
2021/10/31 03:54:45;;;;;;;;;11.00;10.00;;;;;12.87;94.68;99786.19;5076026;28;45564;-80
2021/10/31 03:57:11;;;;;;;;;9.00;8.00;;;;;12.69;94.27;99750.28;5075951;28;45544;-79
2021/10/31 03:59:36;;;;;;;;;12.25;11.50;;;;;12.85;94.51;99788.13;5075620;28;45533;-79
2021/10/31 04:02:03;;;;;;;;;10.25;10.00;;;;;12.68;94.33;99743.38;5076394;28;45577;-81
2021/10/31 04:04:29;;;;;;;;;13.00;12.00;;;;;12.82;94.44;99771.81;5077615;28;46536;-82
2021/10/31 04:06:54;;;;;;;;;12.50;11.75;;;;;12.84;93.95;99770.72;5078112;28;46010;-82
2021/10/31 04:12:54;;;;;;;;;;;;;;;;;;;;;
2021/10/31 04:15:20;;;;;;;;;10.50;10.25;;;;;12.81;94.33;99747.31;5016322;28;77385;-80
2021/10/31 04:17:54;;;;;;;;;13.25;11.00;;;;;12.58;94.12;99712.69;5019118;28;46077;-78
2021/10/31 04:20:20;;;;;;;;;12.75;11.00;;;;;12.85;94.13;99748.69;4996625;28;45732;-81
2021/10/31 04:22:47;;;;;;;;;13.75;10.50;;;;;12.86;94.36;99750.34;5013219;28;45727;-80
2021/10/31 04:25:13;;;;;;;;;12.75;11.00;;;;;12.85;94.00;99738.19;5017012;28;46223;-82
2021/10/31 04:27:38;;;;;;;;;10.25;10.00;;;;;12.86;94.11;99744.25;5014551;28;46187;-79
2021/10/31 04:30:08;;;;;;;;;13.00;11.75;;;;;12.86;94.39;99741.63;5012652;28;45706;-78
2021/10/31 04:32:34;;;;;;;;;9.00;7.75;;;;;12.80;94.16;99727.28;5012732;28;45814;-79
2021/10/31 04:35:00;;;;;;;;;8.25;7.75;;;;;12.75;94.51;99729.50;4995542;28;47574;-78
2021/10/31 04:37:26;;;;;;;;;10.50;10.25;;;;;12.75;94.23;99715.53;5011993;28;45998;-77
2021/10/31 04:39:52;;;;;;;;;12.00;10.00;;;;;12.85;94.57;99725.03;5012374;28;45585;-80
2021/10/31 04:42:18;;;;;;;;;9.25;9.25;;;;;12.88;94.44;99724.75;5013219;28;45677;-80
2021/10/31 04:44:47;;;;;;;;;11.25;10.25;;;;;12.78;93.91;99710.84;5012479;28;45682;-78
2021/10/31 04:47:12;;;;;;;;;10.50;10.00;;;;;12.86;94.17;99729.31;5012594;28;46010;-78
2021/10/31 04:49:38;;;;;;;;;8.75;7.50;;;;;12.85;94.34;99735.53;5050385;28;45603;-80
2021/10/31 04:52:04;;;;;;;;;7.50;6.25;;;;;12.87;94.11;99727.53;5075633;28;45694;-80
2021/10/31 04:54:31;;;;;;;;;10.00;9.00;;;;;12.90;94.33;99722.00;5074694;28;46375;-77
2021/10/31 04:56:57;;;;;;;;;9.00;9.00;;;;;12.90;94.34;99708.84;5074869;28;46035;-78
2021/10/31 04:59:23;;;;;;;;;10.00;9.50;;;;;12.75;94.09;99682.19;5074868;28;45669;-79
2021/10/31 05:01:49;;;;;;;;;10.00;6.50;;;;;12.90;94.23;99696.50;5075059;28;45656;-78
2021/10/31 05:04:16;;;;;;;;;9.00;9.00;;;;;12.75;94.22;99669.06;5074865;28;46275;-78
2021/10/31 05:10:03;;;;;;;;;10.25;9.75;;;;;12.87;94.01;99667.88;5074408;28;45584;-77
2021/10/31 05:12:29;;;;;;;;;9.00;7.00;;;;;12.85;94.30;99661.09;5074189;28;45701;-80
2021/10/31 05:15:13;;;;;;;;;9.75;9.00;;;;;12.94;93.99;99668.13;5074573;28;46328;-79
2021/10/31 05:17:40;;;;;;;;;8.75;8.00;;;;;12.90;94.14;99658.91;5074739;28;46237;-78
2021/10/31 05:20:08;;;;;;;;;11.25;10.00;;;;;12.82;94.39;99643.00;5055504;28;45492;-78
2021/10/31 05:22:35;;;;;;;;;10.00;9.75;;;;;12.95;94.52;99654.84;5056046;28;45670;-79
2021/10/31 05:25:12;;;;;;;;;12.00;10.00;;;;;12.89;94.04;99644.94;5074719;28;45959;-78
2021/10/31 05:27:37;;;;;;;;;10.00;8.50;;;;;12.68;93.97;99604.94;5056062;28;47516;-79
2021/10/31 05:30:27;;;;;;;;;9.50;9.25;;;;;12.48;94.17;99575.28;5074327;28;45648;-77
2021/10/31 05:32:55;;;;;;;;;9.25;8.50;;;;;12.57;94.09;99578.84;5072988;28;45583;-79
2021/10/31 05:35:21;;;;;;;;;10.50;10.50;;;;;12.61;94.30;99578.41;5055796;28;46410;-79
2021/10/31 05:37:48;;;;;;;;;12.25;10.75;;;;;12.77;93.94;99600.56;5074178;28;46188;-81
2021/10/31 05:40:15;;;;;;;;;12.00;11.00;;;;;12.80;94.18;99603.72;5074380;28;45810;-81
2021/10/31 05:42:42;;;;;;;;;11.50;10.50;;;;;13.04;94.17;99637.34;5074327;28;45751;-81
2021/10/31 05:45:08;;;;;;;;;11.00;10.75;;;;;13.00;94.34;99628.13;5074237;28;46384;-79
2021/10/31 05:47:42;;;;;;;;;12.00;10.75;;;;;13.06;94.48;99621.44;5055682;28;47302;-77
2021/10/31 05:50:10;;;;;;;;;13.00;11.00;;;;;13.06;94.17;99611.75;5074692;28;45550;-79
2021/10/31 05:52:39;;;;;;;;;11.75;8.50;;;;;13.02;94.09;99610.38;5074633;28;45534;-79
2021/10/31 05:55:06;;;;;;;;;12.00;11.00;;;;;13.07;94.32;99623.88;5074312;28;45543;-81
2021/10/31 05:57:31;;;;;;;;;11.25;10.00;;;;;12.96;93.88;99597.81;5074406;28;45617;-80
2021/10/31 05:59:57;;;;;;;;;10.00;9.25;;;;;13.00;94.23;99597.38;5074336;28;45606;-80
2021/10/31 06:02:22;;;;;;;;;10.50;8.00;;;;;13.08;94.57;99607.16;5074478;28;45963;-81
2021/10/31 06:04:48;;;;;;;;;9.00;8.00;;;;;13.03;94.21;99597.06;5074390;28;45695;-78
2021/10/31 06:10:35;;;;;;;;;8.75;5.75;;;;;13.01;94.04;99580.63;5073988;28;45768;-80
2021/10/31 06:13:00;;;;;;;;;7.00;7.00;;;;;13.09;94.13;99576.41;5074771;28;45801;-81
2021/10/31 06:15:25;;;;;;;;;9.00;6.00;;;;;13.10;93.93;99576.28;5056010;28;46544;-81
2021/10/31 06:17:54;;;;;;;;;5.25;5.00;;;;;13.13;94.17;99580.41;5073801;28;46202;-77
2021/10/31 06:20:19;;;;;;;;;6.00;5.50;;;;;13.15;94.39;99583.75;5073849;28;45669;-79
2021/10/31 06:22:45;;;;;;;;;5.00;5.00;;;;;13.15;94.42;99579.31;5074620;28;45542;-79
2021/10/31 06:25:11;;;;;;;;;6.00;5.00;;;;;13.04;94.18;99561.09;5077572;28;46405;-79
2021/10/31 06:27:39;;;;;;;;;5.50;5.50;;;;;12.91;93.80;99539.59;5078638;28;46312;-77
2021/10/31 06:30:06;;;;;;;;;6.00;5.50;;;;;13.19;94.48;99592.97;5080952;28;45679;-80
2021/10/31 06:32:31;;;;;;;;;7.25;4.75;;;;;12.89;94.21;99536.31;5080763;28;45984;-79
2021/10/31 06:34:57;;;;;;;;;5.75;5.00;;;;;13.04;94.22;99545.31;5079525;28;46665;-80
2021/10/31 06:40:57;;;;;;;;;4.25;4.25;;;;;13.20;93.89;99560.44;5075855;28;45746;-78
2021/10/31 06:43:22;;;;;;;;;6.00;5.75;;;;;13.20;94.21;99547.28;5077575;28;45487;-81
2021/10/31 06:45:48;;;;;;;;;4.75;4.00;;;;;13.19;94.02;99543.84;5076706;28;47651;-78
2021/10/31 06:48:13;;;;;;;;;5.00;5.00;;;;;13.16;94.46;99525.75;5058952;28;46043;-80
2021/10/31 06:50:38;;;;;;;;;6.00;6.00;;;;;13.21;94.13;99530.53;5076511;28;45537;-80
2021/10/31 06:53:04;;;;;;;;;7.00;6.00;;;;;13.15;94.52;99539.88;5077123;28;45793;-79
2021/10/31 06:55:29;;;;;;;;;4.50;4.50;;;;;13.23;94.10;99549.59;5076929;28;46273;-80
2021/10/31 06:57:55;;;;;;;;;7.00;5.75;;;;;13.20;94.04;99534.97;5076762;28;46908;-79
2021/10/31 07:00:26;;;;;;;;;5.50;4.25;;;;;13.16;94.21;99517.03;5076314;28;45647;-80
2021/10/31 07:02:52;;;;;;;;;6.00;6.00;;;;;13.27;94.06;99519.41;5058234;28;45822;-81
2021/10/31 07:05:20;;;;;;;;;7.00;6.25;;;;;13.28;94.20;99519.22;5076524;28;47163;-80
2021/10/31 07:11:06;;;;;;;;;7.00;6.00;;;;;13.25;94.17;99495.88;5076364;28;45573;-79
2021/10/31 07:13:52;;;;;;;;;3.75;3.50;;;;;13.31;94.18;99511.06;5057832;28;45896;-78
2021/10/31 07:16:18;;;;;;;;;4.00;4.00;;;;;13.23;94.08;99499.63;5076269;28;46431;-77
2021/10/31 07:18:43;;;;;;;;;6.00;5.50;;;;;13.28;94.15;99510.53;5075458;28;47074;-81
2021/10/31 07:21:08;;;;;;;;;7.25;6.25;;;;;13.34;94.10;99500.22;5076040;28;45630;-81
2021/10/31 07:23:34;;;;;;;;;6.75;5.75;;;;;13.36;93.92;99507.97;5075944;28;45560;-79
2021/10/31 07:26:00;;;;;;;;;6.50;4.50;;;;;13.28;94.32;99495.56;5076085;28;45487;-79
2021/10/31 07:28:25;;;;;;;;;4.25;4.25;;;;;13.35;94.08;99506.31;5076332;28;46305;-79
2021/10/31 07:30:52;;;;;;;;;5.00;5.00;;;;;13.40;94.09;99504.88;5076461;28;45605;-78
2021/10/31 07:33:21;;;;;;;;;7.75;6.00;;;;;13.30;94.18;99485.72;5076454;28;45781;-78
2021/10/31 07:35:46;;;;;;;;;5.00;5.00;;;;;13.46;94.46;99500.78;5075907;28;47416;-80
2021/10/31 07:38:12;;;;;;;;;4.75;4.75;;;;;13.46;94.13;99485.00;5076437;28;46214;-83
2021/10/31 07:40:39;;;;;;;;;6.00;5.50;;;;;13.41;94.15;99480.22;5076019;28;45502;-76
2021/10/31 07:43:05;;;;;;;;;7.00;6.25;;;;;13.51;94.62;99489.78;5076492;28;45674;-78
2021/10/31 07:45:31;;;;;;;;;8.50;6.00;;;;;13.54;93.95;99494.78;5076023;28;46205;-76
2021/10/31 07:47:57;;;;;;;;;5.75;5.00;;;;;13.56;94.20;99487.53;5075975;28;46056;-77
2021/10/31 07:50:22;;;;;;;;;6.50;5.00;;;;;13.60;93.97;99497.59;5075890;28;45734;-77
2021/10/31 07:56:13;;;;;;;;;5.50;5.50;;;;;13.68;94.02;99483.66;5075587;28;46064;-76
2021/10/31 07:58:39;;;;;;;;;5.50;5.50;;;;;13.69;94.12;99482.69;5076112;28;46171;-76
2021/10/31 08:01:05;;;;;;;;;7.50;7.50;;;;;13.64;94.36;99472.63;5075904;28;45830;-77
2021/10/31 08:03:31;;;;;;;;;6.25;5.00;;;;;13.57;94.28;99439.19;5076331;28;45626;-77
2021/10/31 08:05:56;;;;;;;;;8.00;7.25;;;;;13.75;94.00;99463.63;5075472;28;45605;-78
2021/10/31 08:08:22;;;;;;;;;6.75;6.00;;;;;13.78;94.01;99458.88;5075611;28;45556;-76
2021/10/31 08:10:48;;;;;;;;;7.25;7.25;;;;;13.77;94.36;99451.94;5075325;28;45537;-76
2021/10/31 08:13:25;;;;;;;;;7.50;6.75;;;;;13.77;94.19;99441.41;5075929;28;45514;-78
2021/10/31 08:15:51;;;;;;;;;8.00;7.00;;;;;13.86;94.27;99445.75;5075482;28;45595;-77
2021/10/31 08:18:18;;;;;;;;;8.50;7.50;;;;;13.89;93.91;99447.22;5074985;28;47175;-77
2021/10/31 08:20:44;;;;;;;;;9.25;7.75;;;;;13.86;93.88;99435.22;5075228;28;45910;-77
2021/10/31 08:26:31;;;;;;;;;9.25;9.25;;;;;13.98;94.11;99427.03;5075273;28;45757;-78
2021/10/31 08:28:57;;;;;;;;;8.00;7.25;;;;;14.00;93.88;99428.50;5075027;28;47032;-78
2021/10/31 08:31:31;;;;;;;;;7.25;7.00;;;;;13.96;93.71;99415.81;5074549;28;45606;-77
2021/10/31 08:33:59;;;;;;;;;8.75;7.00;;;;;14.00;94.17;99420.59;5073275;28;46175;-79
2021/10/31 08:36:32;;;;;;;;;7.00;6.25;;;;;14.06;93.83;99421.78;5074657;28;46816;-78
2021/10/31 08:39:00;;;;;;;;;7.75;7.00;;;;;14.08;94.02;99417.19;5075005;28;46190;-78
2021/10/31 08:41:28;;;;;;;;;9.00;7.75;;;;;14.11;93.88;99406.31;5074897;28;45667;-79
2021/10/31 08:43:55;;;;;;;;;8.00;6.00;;;;;14.14;93.95;99398.09;5075138;28;45658;-76
2021/10/31 08:46:20;;;;;;;;;8.50;6.75;;;;;14.11;94.00;99385.25;5074180;28;47579;-78
2021/10/31 08:48:47;;;;;;;;;7.00;6.25;;;;;14.19;93.89;99391.38;5074991;28;47080;-78
2021/10/31 08:51:13;;;;;;;;;6.00;5.50;;;;;14.16;93.85;99380.31;5075664;28;45659;-76
2021/10/31 08:53:39;;;;;;;;;6.75;5.75;;;;;14.18;93.68;99365.19;5071958;28;45943;-77
2021/10/31 08:56:06;;;;;;;;;10.50;5.75;;;;;14.27;93.86;99378.19;5075317;28;47338;-76
2021/10/31 08:58:31;;;;;;;;;5.25;5.25;;;;;14.24;93.83;99364.53;5075766;28;46006;-77
2021/10/31 09:00:57;;;;;;;;;9.00;6.00;;;;;14.29;94.05;99347.25;5076698;28;45554;-77
2021/10/31 09:03:24;;;;;;;;;5.25;5.00;;;;;14.34;94.17;99341.47;5075365;28;45871;-77
2021/10/31 09:05:50;;;;;;;;;5.50;5.50;;;;;14.37;93.75;99335.06;5074819;28;46613;-77
2021/10/31 09:11:37;;;;;;;;;6.00;5.75;;;;;14.48;93.92;99340.03;5074433;28;45794;-76
2021/10/31 09:14:02;;;;;;;;;5.00;5.00;;;;;14.52;93.69;99336.09;5074835;28;45782;-76
2021/10/31 09:16:28;;;;;;;;;5.50;5.25;;;;;14.51;93.59;99322.09;5074587;28;46447;-76
2021/10/31 09:18:53;;;;;;;;;5.00;4.25;;;;;14.56;93.97;99309.22;5074548;28;45587;-76
2021/10/31 09:21:24;;;;;;;;;6.25;5.50;;;;;14.62;93.76;99300.66;5073955;28;45552;-77
2021/10/31 09:23:51;;;;;;;;;5.75;5.00;;;;;14.66;93.72;99303.78;5074454;28;45597;-78
2021/10/31 09:26:19;;;;;;;;;5.00;4.00;;;;;14.66;93.98;99295.88;5074704;28;47712;-78
2021/10/31 09:28:46;;;;;;;;;4.00;4.00;;;;;14.64;93.84;99284.66;5074381;28;47108;-78
2021/10/31 09:31:13;;;;;;;;;3.25;2.75;;;;;14.75;93.84;99301.94;5056587;28;45750;-77
2021/10/31 09:33:40;;;;;;;;;2.75;2.25;;;;;14.73;93.65;99293.38;5074941;28;45605;-78
2021/10/31 09:36:05;;;;;;;;;3.75;3.50;;;;;14.82;93.88;99298.47;5074202;28;46417;-76
2021/10/31 09:41:53;;;;;;;;;3.00;2.00;;;;;14.96;93.78;99292.50;5073103;28;45656;-76
2021/10/31 09:44:22;;;;;;;;;3.00;3.00;;;;;14.98;93.61;99282.59;5075196;28;45578;-78
2021/10/31 09:46:49;;;;;;;;;3.00;2.00;;;;;15.02;93.62;99273.34;5075232;28;47022;-78
2021/10/31 09:49:15;;;;;;;;;3.25;3.00;;;;;15.08;93.75;99266.56;5075018;28;46574;-77
2021/10/31 09:51:44;;;;;;;;;4.00;3.00;;;;;15.13;93.87;99259.78;5074742;28;45667;-78
2021/10/31 09:54:11;;;;;;;;;4.00;3.00;;;;;15.19;93.81;99253.00;5074671;28;45590;-75
2021/10/31 09:56:38;;;;;;;;;4.75;4.00;;;;;15.23;93.82;99256.94;5074737;28;45493;-77
2021/10/31 09:59:11;;;;;;;;;3.00;3.00;;;;;15.24;93.71;99249.84;5077618;28;46138;-76
2021/10/31 10:04:38;;;;;;;;;3.00;3.00;;;;;15.35;93.91;99233.63;5075967;28;45605;-77
2021/10/31 10:07:07;;;;;;;;;3.25;2.25;;;;;15.40;94.04;99226.84;5070999;28;46319;-77
2021/10/31 10:09:34;;;;;;;;;5.00;3.50;;;;;15.41;93.53;99220.56;5077254;28;45561;-78
2021/10/31 10:12:18;;;;;;;;;9.00;8.75;;;;;15.49;93.82;99227.63;5077646;28;45644;-77
2021/10/31 10:15:00;;;;;;;;;5.75;4.00;;;;;15.47;93.62;99211.13;5078143;28;45771;-82
2021/10/31 10:17:26;;;;;;;;;3.00;3.00;;;;;15.54;93.46;99204.22;5077931;28;46891;-81
2021/10/31 10:19:59;;;;;;;;;4.50;3.00;;;;;15.61;93.62;99202.50;5077625;28;45645;-80
2021/10/31 10:22:27;;;;;;;;;3.75;3.00;;;;;15.63;93.63;99203.16;5078012;28;45788;-81
2021/10/31 10:24:55;;;;;;;;;2.25;2.25;;;;;15.70;93.57;99193.53;5077882;28;45513;-81
2021/10/31 10:27:24;;;;;;;;;4.50;3.75;;;;;15.71;93.55;99175.88;5078115;28;45592;-83
2021/10/31 10:29:51;;;;;;;;;5.00;4.25;;;;;15.65;93.69;99152.81;5077615;28;47585;-85
2021/10/31 10:32:19;;;;;;;;;4.00;4.00;;;;;15.92;93.57;99176.81;5077869;28;45669;-85
2021/10/31 10:34:57;;;;;;;;;3.00;3.00;;;;;15.91;93.71;99164.63;5078353;28;45866;-83
2021/10/31 10:37:27;;;;;;;;;3.00;3.00;;;;;15.97;93.61;99162.28;5077932;28;46279;-84
2021/10/31 10:39:57;;;;;;;;;3.25;3.25;;;;;16.10;93.35;99180.97;5078347;28;45882;-82
2021/10/31 10:42:30;;;;;;;;;9.00;8.75;;;;;16.15;93.61;99154.81;5077627;28;45741;-82
2021/10/31 10:45:01;;;;;;;;;2.75;2.75;;;;;16.11;93.27;99149.09;5078988;28;45700;-82
2021/10/31 10:47:28;;;;;;;;;20.50;18.25;;;;;16.29;93.41;99156.69;5077681;28;46511;-82
2021/10/31 10:49:56;;;;;;;;;9.00;9.00;;;;;16.35;93.45;99155.97;5077622;28;46040;-83
2021/10/31 10:52:34;;;;;;;;;3.00;3.00;;;;;16.42;93.42;99162.13;5077816;28;45592;-83
2021/10/31 10:55:23;;;;;;;;;3.00;2.75;;;;;16.50;93.85;99153.31;5076702;28;45932;-82
2021/10/31 10:57:58;;;;;;;;;2.00;2.00;;;;;16.56;93.84;99153.41;5077928;28;46842;-84
2021/10/31 11:00:37;;;;;;;;;3.00;3.00;;;;;16.64;93.43;99144.56;5077443;28;45929;-83
2021/10/31 11:03:18;;;;;;;;;5.00;5.00;;;;;16.67;93.44;99146.88;5077591;28;45627;-82
2021/10/31 11:05:47;;;;;;;;;2.25;2.00;;;;;16.77;93.41;99156.16;5077400;28;45952;-83
2021/10/31 11:08:24;;;;;;;;;2.25;2.00;;;;;16.80;93.82;99131.16;5076808;28;45701;-82
2021/10/31 11:11:02;;;;;;;;;3.00;2.00;;;;;16.91;93.71;99149.19;5042340;28;46869;-83
2021/10/31 11:13:29;;;;;;;;;2.00;2.00;;;;;16.77;93.52;99118.31;5081139;28;45563;-84
2021/10/31 11:15:57;;;;;;;;;3.00;2.00;;;;;17.05;93.68;99147.53;5081994;28;45468;-83
2021/10/31 11:18:23;;;;;;;;;1.00;1.00;;;;;17.09;93.66;99132.91;5080786;28;46841;-83
2021/10/31 11:20:49;;;;;;;;;2.25;2.25;;;;;17.00;93.44;99107.59;5079990;28;45726;-83
2021/10/31 11:23:18;;;;;;;;;1.00;1.00;;;;;17.21;93.52;99118.19;5077691;28;45594;-83
2021/10/31 11:25:46;;;;;;;;;1.00;1.00;;;;;17.30;93.78;99124.16;5077315;28;45587;-83
2021/10/31 11:28:15;;;;;;;;;2.00;2.00;;;;;17.35;93.61;99125.25;5058896;28;47611;-82
2021/10/31 11:30:44;;;;;;;;;2.00;2.00;;;;;17.38;93.27;99124.84;5076795;28;47032;-82
2021/10/31 11:33:11;;;;;;;;;1.00;1.00;;;;;17.30;93.32;99093.22;5077145;28;45658;-82
2021/10/31 11:35:37;;;;;;;;;2.00;1.75;;;;;17.37;93.74;99104.72;5077395;28;45695;-83
2021/10/31 11:38:09;;;;;;;;;2.00;2.00;;;;;17.38;93.60;99085.13;5076738;28;45678;-84
2021/10/31 11:40:40;;;;;;;;;3.00;3.00;;;;;17.56;93.31;99101.41;5076928;28;45968;-84
2021/10/31 11:43:08;;;;;;;;;1.50;1.50;;;;;17.57;93.31;99087.16;5076745;28;45494;-85
2021/10/31 11:45:36;;;;;;;;;2.75;2.00;;;;;17.64;93.73;99097.03;5074985;28;45543;-82
2021/10/31 11:48:40;;;;;;;;;2.25;2.00;;;;;17.63;93.18;99088.25;5076443;28;45600;-82
2021/10/31 11:51:11;;;;;;;;;2.75;2.00;;;;;17.66;93.26;99079.09;5033863;28;46032;-83
2021/10/31 11:53:48;;;;;;;;;1.50;1.50;;;;;17.73;93.47;99070.19;5017131;28;45711;-81
2021/10/31 11:56:24;;;;;;;;;2.00;2.00;;;;;17.75;93.69;99054.13;5034096;28;45608;-81
2021/10/31 11:59:17;;;;;;;;;3.00;2.00;;;;;17.73;93.67;99037.59;5035164;28;46608;-80
2021/10/31 12:01:48;;;;;;;;;3.00;2.50;;;;;17.76;93.61;99039.88;4992150;28;46205;-80
2021/10/31 12:04:41;;;;;;;;;3.00;3.00;;;;;17.79;93.37;99039.47;4995884;28;45608;-82
2021/10/31 12:07:11;;;;;;;;;11.75;11.75;;;;;17.79;93.86;99042.13;4977827;28;46003;-81
2021/10/31 12:09:37;;;;;;;;;5.50;4.25;;;;;17.79;93.86;99040.28;4994171;28;45584;-80
2021/10/31 12:12:02;;;;;;;;;9.25;8.50;;;;;17.81;93.56;99045.41;4993819;28;45828;-80
2021/10/31 12:14:46;;;;;;;;;8.00;7.25;;;;;17.67;93.08;99011.88;4993911;28;45608;-82
2021/10/31 12:17:12;;;;;;;;;7.75;6.50;;;;;17.84;93.18;99035.22;4994602;28;45643;-81
2021/10/31 12:19:40;;;;;;;;;25.00;22.75;;;;;17.84;93.43;99029.94;4993839;28;47254;-82
2021/10/31 12:22:16;;;;;;;;;8.50;7.75;;;;;17.87;93.74;99028.69;4994456;28;46161;-82
2021/10/31 12:24:48;;;;;;;;;6.00;6.00;;;;;17.82;93.53;99008.09;4994516;28;45712;-81
2021/10/31 12:27:16;;;;;;;;;16.50;14.00;;;;;17.89;93.76;99024.84;5001747;28;45552;-80
2021/10/31 12:29:49;;;;;;;;;9.25;8.50;;;;;17.92;93.42;99028.97;5012891;28;45672;-80
2021/10/31 12:32:19;;;;;;;;;3.25;3.25;;;;;17.94;93.29;99026.91;4996274;28;47135;-80
2021/10/31 12:34:50;;;;;;;;;5.50;5.00;;;;;17.94;93.41;99027.75;5012997;28;45744;-81
2021/10/31 12:37:18;;;;;;;;;2.50;2.50;;;;;17.96;93.60;99009.81;5014245;28;45685;-83
2021/10/31 12:39:43;;;;;;;;;3.50;3.50;;;;;17.98;93.07;99009.59;5071946;28;45629;-82
2021/10/31 12:42:35;;;;;;;;;4.00;3.00;;;;;18.00;93.22;98999.63;5075658;28;45807;-84